Main page
METAR-TAF:

METAR-TAF

Airports :

León Airport

León, Spain

latitude: 42-35N, longitude: 005-39W, elevation: 926 m

Current weather observation

The report was made 38 minutes ago, at 02:30 UTC
Wind 9 kt from the West
Temperature 4°C
Humidity 93%
Pressure 1017 hPa
Visibility: 9000 m

METAR: LELN 260230Z AUTO 26009KT 9000 NCD 04/03 Q1017

Time: 05:08 (03:08 UTC)

Forecast

The report was made 1 hour and 8 minutes ago, at 02:00 UTC
Forecast valid from 26 at 03 UTC to 26 at 12 UTC
Wind 12 kt from the Southwest
Visibility 10 km or more
Scattered clouds at a height of 2000 ft
Broken clouds at a height of 3500 ft
Probability 30% :
Temporary
from 26 at 03 UTC to 26 at 07 UTC
Visibility: 3000 m
Broken clouds at a height of 600 ft
mist

TAF: LELN 260200Z 2603/2612 22012KT 9999 SCT020 BKN035 PROB30 TEMPO 2603/2607 3000 BR BKN006

Weather observations and forecasts of more than 4000 airports (METAR and TAF reports).

The available stations are represented by yellow and red dots on the map.

Hover mouse over dot to see the name of the station.

Then click to see weather observations and forecasts.

To change the map : click on the green buttons with a black cross to zoom in, on the green button with a dash to zoom out, or on the green arrows for adjacent maps.


METAR-TAF: